sensor_id;sensor_type;location;lat;lon;timestamp;P1;durP1;ratioP1;P2;durP2;ratioP2
3975;SDS011;2002;48.812;9.180;2023-05-10T00:01:33;1.67;;;1.57;;
3975;SDS011;2002;48.812;9.180;2023-05-10T00:03:59;1.77;;;1.67;;
3975;SDS011;2002;48.812;9.180;2023-05-10T00:06:24;1.77;;;1.63;;
3975;SDS011;2002;48.812;9.180;2023-05-10T00:08:50;1.70;;;1.60;;
3975;SDS011;2002;48.812;9.180;2023-05-10T00:11:15;2.20;;;2.00;;
3975;SDS011;2002;48.812;9.180;2023-05-10T00:13:41;2.10;;;1.70;;
3975;SDS011;2002;48.812;9.180;2023-05-10T00:16:06;1.80;;;1.70;;
3975;SDS011;2002;48.812;9.180;2023-05-10T00:18:32;4.03;;;1.90;;
3975;SDS011;2002;48.812;9.180;2023-05-10T00:20:57;1.70;;;1.60;;
3975;SDS011;2002;48.812;9.180;2023-05-10T00:23:23;1.87;;;1.77;;
3975;SDS011;2002;48.812;9.180;2023-05-10T00:25:49;1.90;;;1.80;;
3975;SDS011;2002;48.812;9.180;2023-05-10T00:28:14;1.80;;;1.70;;
3975;SDS011;2002;48.812;9.180;2023-05-10T00:30:40;1.77;;;1.67;;
3975;SDS011;2002;48.812;9.180;2023-05-10T00:33:05;1.70;;;1.60;;
3975;SDS011;2002;48.812;9.180;2023-05-10T00:35:31;1.80;;;1.70;;
3975;SDS011;2002;48.812;9.180;2023-05-10T00:37:57;1.60;;;1.50;;
3975;SDS011;2002;48.812;9.180;2023-05-10T00:40:22;1.53;;;1.43;;
3975;SDS011;2002;48.812;9.180;2023-05-10T00:42:48;1.87;;;1.77;;
3975;SDS011;2002;48.812;9.180;2023-05-10T00:45:13;1.73;;;1.60;;
3975;SDS011;2002;48.812;9.180;2023-05-10T00:47:39;1.57;;;1.47;;
3975;SDS011;2002;48.812;9.180;2023-05-10T00:50:05;1.67;;;1.57;;
3975;SDS011;2002;48.812;9.180;2023-05-10T00:52:31;2.40;;;2.20;;
3975;SDS011;2002;48.812;9.180;2023-05-10T00:54:57;1.83;;;1.73;;
3975;SDS011;2002;48.812;9.180;2023-05-10T00:57:23;1.80;;;1.70;;
3975;SDS011;2002;48.812;9.180;2023-05-10T00:59:49;1.40;;;1.30;;
3975;SDS011;2002;48.812;9.180;2023-05-10T01:02:15;1.70;;;1.60;;
3975;SDS011;2002;48.812;9.180;2023-05-10T01:04:40;1.40;;;1.30;;
3975;SDS011;2002;48.812;9.180;2023-05-10T01:07:06;1.60;;;1.50;;
3975;SDS011;2002;48.812;9.180;2023-05-10T01:09:32;1.70;;;1.60;;
3975;SDS011;2002;48.812;9.180;2023-05-10T01:11:58;1.40;;;1.30;;
3975;SDS011;2002;48.812;9.180;2023-05-10T01:14:25;2.00;;;1.63;;
3975;SDS011;2002;48.812;9.180;2023-05-10T01:16:52;2.10;;;2.00;;
3975;SDS011;2002;48.812;9.180;2023-05-10T01:19:22;1.70;;;1.60;;
3975;SDS011;2002;48.812;9.180;2023-05-10T01:24:38;1.40;;;1.30;;
3975;SDS011;2002;48.812;9.180;2023-05-10T01:35:26;1.73;;;1.63;;
3975;SDS011;2002;48.812;9.180;2023-05-10T01:40:48;1.60;;;1.50;;
3975;SDS011;2002;48.812;9.180;2023-05-10T01:46:31;1.60;;;1.50;;
3975;SDS011;2002;48.812;9.180;2023-05-10T01:49:02;1.60;;;1.50;;
3975;SDS011;2002;48.812;9.180;2023-05-10T01:51:35;1.90;;;1.80;;
3975;SDS011;2002;48.812;9.180;2023-05-10T01:54:14;1.37;;;1.27;;
3975;SDS011;2002;48.812;9.180;2023-05-10T01:56:44;1.37;;;1.27;;
3975;SDS011;2002;48.812;9.180;2023-05-10T01:59:13;1.93;;;1.83;;
3975;SDS011;2002;48.812;9.180;2023-05-10T02:01:42;1.47;;;1.37;;
3975;SDS011;2002;48.812;9.180;2023-05-10T02:04:09;1.93;;;1.70;;
3975;SDS011;2002;48.812;9.180;2023-05-10T02:06:38;1.50;;;1.40;;
3975;SDS011;2002;48.812;9.180;2023-05-10T02:09:05;1.50;;;1.40;;
3975;SDS011;2002;48.812;9.180;2023-05-10T02:11:31;1.40;;;1.30;;
3975;SDS011;2002;48.812;9.180;2023-05-10T02:13:58;1.43;;;1.33;;
3975;SDS011;2002;48.812;9.180;2023-05-10T02:16:26;1.60;;;1.50;;
3975;SDS011;2002;48.812;9.180;2023-05-10T02:18:52;1.40;;;1.30;;
3975;SDS011;2002;48.812;9.180;2023-05-10T02:21:20;1.40;;;1.30;;
3975;SDS011;2002;48.812;9.180;2023-05-10T02:23:46;1.50;;;1.40;;
3975;SDS011;2002;48.812;9.180;2023-05-10T02:26:15;3.13;;;1.40;;
3975;SDS011;2002;48.812;9.180;2023-05-10T02:28:43;1.83;;;1.73;;
3975;SDS011;2002;48.812;9.180;2023-05-10T02:31:09;1.43;;;1.33;;
3975;SDS011;2002;48.812;9.180;2023-05-10T02:33:37;1.73;;;1.63;;
3975;SDS011;2002;48.812;9.180;2023-05-10T02:36:05;1.57;;;1.47;;
3975;SDS011;2002;48.812;9.180;2023-05-10T02:38:34;1.37;;;1.27;;
3975;SDS011;2002;48.812;9.180;2023-05-10T02:41:01;1.90;;;1.80;;
3975;SDS011;2002;48.812;9.180;2023-05-10T02:43:29;1.60;;;1.50;;
3975;SDS011;2002;48.812;9.180;2023-05-10T02:45:58;1.60;;;1.40;;
3975;SDS011;2002;48.812;9.180;2023-05-10T02:48:24;1.37;;;1.27;;
3975;SDS011;2002;48.812;9.180;2023-05-10T02:50:50;1.73;;;1.63;;
3975;SDS011;2002;48.812;9.180;2023-05-10T02:53:22;1.50;;;1.40;;
3975;SDS011;2002;48.812;9.180;2023-05-10T02:55:55;1.50;;;1.40;;
3975;SDS011;2002;48.812;9.180;2023-05-10T02:58:24;1.37;;;1.23;;
3975;SDS011;2002;48.812;9.180;2023-05-10T03:00:50;1.60;;;1.50;;
3975;SDS011;2002;48.812;9.180;2023-05-10T03:03:15;1.57;;;1.47;;
3975;SDS011;2002;48.812;9.180;2023-05-10T03:05:41;1.37;;;1.27;;
3975;SDS011;2002;48.812;9.180;2023-05-10T03:08:07;1.40;;;1.30;;
3975;SDS011;2002;48.812;9.180;2023-05-10T03:10:32;1.60;;;1.50;;
3975;SDS011;2002;48.812;9.180;2023-05-10T03:13:13;1.53;;;1.43;;
3975;SDS011;2002;48.812;9.180;2023-05-10T03:15:54;1.50;;;1.40;;
3975;SDS011;2002;48.812;9.180;2023-05-10T03:18:42;1.53;;;1.43;;
3975;SDS011;2002;48.812;9.180;2023-05-10T03:21:13;1.43;;;1.33;;
3975;SDS011;2002;48.812;9.180;2023-05-10T03:23:43;1.50;;;1.40;;
3975;SDS011;2002;48.812;9.180;2023-05-10T03:26:13;1.33;;;1.23;;
3975;SDS011;2002;48.812;9.180;2023-05-10T03:28:42;1.50;;;1.40;;
3975;SDS011;2002;48.812;9.180;2023-05-10T03:31:09;1.17;;;1.07;;
3975;SDS011;2002;48.812;9.180;2023-05-10T03:33:35;1.40;;;1.30;;
3975;SDS011;2002;48.812;9.180;2023-05-10T03:36:00;1.27;;;1.17;;
3975;SDS011;2002;48.812;9.180;2023-05-10T03:38:27;1.50;;;1.40;;
3975;SDS011;2002;48.812;9.180;2023-05-10T03:40:52;1.50;;;1.40;;
3975;SDS011;2002;48.812;9.180;2023-05-10T03:43:18;3.00;;;1.60;;
3975;SDS011;2002;48.812;9.180;2023-05-10T03:45:43;1.53;;;1.43;;
3975;SDS011;2002;48.812;9.180;2023-05-10T03:48:09;1.60;;;1.50;;
3975;SDS011;2002;48.812;9.180;2023-05-10T03:50:34;1.40;;;1.30;;
3975;SDS011;2002;48.812;9.180;2023-05-10T03:53:00;1.47;;;1.37;;
3975;SDS011;2002;48.812;9.180;2023-05-10T03:55:25;1.33;;;1.23;;
3975;SDS011;2002;48.812;9.180;2023-05-10T03:57:51;1.40;;;1.30;;
3975;SDS011;2002;48.812;9.180;2023-05-10T04:00:18;1.30;;;1.20;;
3975;SDS011;2002;48.812;9.180;2023-05-10T04:02:44;1.37;;;1.27;;
3975;SDS011;2002;48.812;9.180;2023-05-10T04:05:10;1.50;;;1.40;;
3975;SDS011;2002;48.812;9.180;2023-05-10T04:07:35;1.63;;;1.53;;
3975;SDS011;2002;48.812;9.180;2023-05-10T04:10:01;1.50;;;1.40;;
3975;SDS011;2002;48.812;9.180;2023-05-10T04:12:26;1.30;;;1.17;;
3975;SDS011;2002;48.812;9.180;2023-05-10T04:14:52;1.33;;;1.23;;
3975;SDS011;2002;48.812;9.180;2023-05-10T04:17:17;0.93;;;0.93;;
3975;SDS011;2002;48.812;9.180;2023-05-10T04:19:43;1.60;;;1.50;;
3975;SDS011;2002;48.812;9.180;2023-05-10T04:22:09;1.40;;;1.30;;
3975;SDS011;2002;48.812;9.180;2023-05-10T04:24:34;1.33;;;1.23;;
3975;SDS011;2002;48.812;9.180;2023-05-10T04:27:00;1.70;;;1.60;;
3975;SDS011;2002;48.812;9.180;2023-05-10T04:29:26;1.70;;;1.60;;
3975;SDS011;2002;48.812;9.180;2023-05-10T04:31:52;1.20;;;1.10;;
3975;SDS011;2002;48.812;9.180;2023-05-10T04:34:18;1.70;;;1.47;;
3975;SDS011;2002;48.812;9.180;2023-05-10T04:36:45;1.73;;;1.63;;
3975;SDS011;2002;48.812;9.180;2023-05-10T04:39:11;1.20;;;1.10;;
3975;SDS011;2002;48.812;9.180;2023-05-10T04:41:37;1.30;;;1.20;;
3975;SDS011;2002;48.812;9.180;2023-05-10T04:44:03;1.63;;;1.53;;
3975;SDS011;2002;48.812;9.180;2023-05-10T04:46:29;1.47;;;1.20;;
3975;SDS011;2002;48.812;9.180;2023-05-10T04:48:54;1.10;;;1.00;;
3975;SDS011;2002;48.812;9.180;2023-05-10T04:51:20;0.83;;;0.83;;
3975;SDS011;2002;48.812;9.180;2023-05-10T04:53:45;1.53;;;1.43;;
3975;SDS011;2002;48.812;9.180;2023-05-10T04:56:11;1.73;;;1.63;;
3975;SDS011;2002;48.812;9.180;2023-05-10T04:58:36;1.30;;;1.20;;
3975;SDS011;2002;48.812;9.180;2023-05-10T05:01:08;1.50;;;1.40;;
3975;SDS011;2002;48.812;9.180;2023-05-10T05:03:35;1.30;;;1.20;;
3975;SDS011;2002;48.812;9.180;2023-05-10T05:06:01;1.27;;;1.17;;
3975;SDS011;2002;48.812;9.180;2023-05-10T05:08:27;1.20;;;1.10;;
3975;SDS011;2002;48.812;9.180;2023-05-10T05:10:52;1.50;;;1.40;;
3975;SDS011;2002;48.812;9.180;2023-05-10T05:13:18;1.50;;;1.40;;
3975;SDS011;2002;48.812;9.180;2023-05-10T05:15:44;1.60;;;1.50;;
3975;SDS011;2002;48.812;9.180;2023-05-10T05:18:09;1.40;;;1.30;;
3975;SDS011;2002;48.812;9.180;2023-05-10T05:20:35;1.30;;;1.20;;
3975;SDS011;2002;48.812;9.180;2023-05-10T05:23:01;1.20;;;1.10;;
3975;SDS011;2002;48.812;9.180;2023-05-10T05:25:26;1.43;;;1.33;;
3975;SDS011;2002;48.812;9.180;2023-05-10T05:27:52;1.40;;;1.30;;
3975;SDS011;2002;48.812;9.180;2023-05-10T05:30:18;1.40;;;1.30;;
3975;SDS011;2002;48.812;9.180;2023-05-10T05:32:43;1.43;;;1.33;;
3975;SDS011;2002;48.812;9.180;2023-05-10T05:35:09;1.17;;;1.07;;
3975;SDS011;2002;48.812;9.180;2023-05-10T05:37:34;1.20;;;1.10;;
3975;SDS011;2002;48.812;9.180;2023-05-10T05:40:00;1.30;;;1.20;;
3975;SDS011;2002;48.812;9.180;2023-05-10T05:42:26;0.80;;;0.80;;
3975;SDS011;2002;48.812;9.180;2023-05-10T05:44:52;1.27;;;1.10;;
3975;SDS011;2002;48.812;9.180;2023-05-10T05:47:18;1.07;;;1.00;;
3975;SDS011;2002;48.812;9.180;2023-05-10T05:49:43;1.37;;;1.27;;
3975;SDS011;2002;48.812;9.180;2023-05-10T05:52:11;1.07;;;1.03;;
3975;SDS011;2002;48.812;9.180;2023-05-10T05:54:36;1.50;;;1.13;;
3975;SDS011;2002;48.812;9.180;2023-05-10T05:57:02;2.23;;;1.67;;
3975;SDS011;2002;48.812;9.180;2023-05-10T05:59:28;1.10;;;1.00;;
3975;SDS011;2002;48.812;9.180;2023-05-10T06:01:54;1.20;;;1.10;;
3975;SDS011;2002;48.812;9.180;2023-05-10T06:04:19;1.37;;;1.27;;
3975;SDS011;2002;48.812;9.180;2023-05-10T06:06:45;1.33;;;1.13;;
3975;SDS011;2002;48.812;9.180;2023-05-10T06:09:13;1.38;;;1.25;;
3975;SDS011;2002;48.812;9.180;2023-05-10T06:11:39;1.27;;;1.17;;
3975;SDS011;2002;48.812;9.180;2023-05-10T06:14:04;1.30;;;1.20;;
3975;SDS011;2002;48.812;9.180;2023-05-10T06:16:32;1.20;;;1.10;;
3975;SDS011;2002;48.812;9.180;2023-05-10T06:18:58;1.33;;;1.23;;
3975;SDS011;2002;48.812;9.180;2023-05-10T06:21:23;1.10;;;1.00;;
3975;SDS011;2002;48.812;9.180;2023-05-10T06:23:49;1.50;;;1.40;;
3975;SDS011;2002;48.812;9.180;2023-05-10T06:26:15;1.33;;;1.10;;
3975;SDS011;2002;48.812;9.180;2023-05-10T06:28:40;1.40;;;1.30;;
3975;SDS011;2002;48.812;9.180;2023-05-10T06:31:06;1.27;;;1.17;;
3975;SDS011;2002;48.812;9.180;2023-05-10T06:33:32;1.10;;;1.07;;
3975;SDS011;2002;48.812;9.180;2023-05-10T06:35:58;1.40;;;1.30;;
3975;SDS011;2002;48.812;9.180;2023-05-10T06:38:24;1.47;;;1.37;;
3975;SDS011;2002;48.812;9.180;2023-05-10T06:40:50;1.67;;;1.57;;
3975;SDS011;2002;48.812;9.180;2023-05-10T06:43:16;0.93;;;0.93;;
3975;SDS011;2002;48.812;9.180;2023-05-10T06:45:41;1.10;;;1.00;;
3975;SDS011;2002;48.812;9.180;2023-05-10T06:48:07;1.20;;;1.10;;
3975;SDS011;2002;48.812;9.180;2023-05-10T06:50:33;1.60;;;1.50;;
3975;SDS011;2002;48.812;9.180;2023-05-10T06:52:59;3.63;;;1.13;;
3975;SDS011;2002;48.812;9.180;2023-05-10T06:55:25;1.07;;;1.00;;
3975;SDS011;2002;48.812;9.180;2023-05-10T06:57:51;0.80;;;0.80;;
3975;SDS011;2002;48.812;9.180;2023-05-10T07:00:17;1.13;;;1.00;;
3975;SDS011;2002;48.812;9.180;2023-05-10T07:02:44;1.23;;;1.10;;
3975;SDS011;2002;48.812;9.180;2023-05-10T07:05:09;2.03;;;1.40;;
3975;SDS011;2002;48.812;9.180;2023-05-10T07:07:35;1.17;;;1.07;;
3975;SDS011;2002;48.812;9.180;2023-05-10T07:10:01;2.23;;;1.30;;
3975;SDS011;2002;48.812;9.180;2023-05-10T07:12:27;1.40;;;1.30;;
3975;SDS011;2002;48.812;9.180;2023-05-10T07:14:52;0.93;;;0.93;;
3975;SDS011;2002;48.812;9.180;2023-05-10T07:17:18;1.40;;;1.27;;
3975;SDS011;2002;48.812;9.180;2023-05-10T07:19:43;1.30;;;1.20;;
3975;SDS011;2002;48.812;9.180;2023-05-10T07:22:09;1.20;;;1.10;;
3975;SDS011;2002;48.812;9.180;2023-05-10T07:24:35;1.10;;;1.00;;
3975;SDS011;2002;48.812;9.180;2023-05-10T07:27:00;1.17;;;0.90;;
3975;SDS011;2002;48.812;9.180;2023-05-10T07:29:26;1.10;;;1.00;;
3975;SDS011;2002;48.812;9.180;2023-05-10T07:31:51;1.47;;;1.17;;
3975;SDS011;2002;48.812;9.180;2023-05-10T07:34:17;1.10;;;1.00;;
3975;SDS011;2002;48.812;9.180;2023-05-10T07:36:42;1.10;;;1.00;;
3975;SDS011;2002;48.812;9.180;2023-05-10T07:39:08;1.10;;;1.00;;
3975;SDS011;2002;48.812;9.180;2023-05-10T07:41:34;1.30;;;1.20;;
3975;SDS011;2002;48.812;9.180;2023-05-10T07:43:59;0.90;;;0.90;;
3975;SDS011;2002;48.812;9.180;2023-05-10T07:46:25;1.17;;;1.07;;
3975;SDS011;2002;48.812;9.180;2023-05-10T07:48:51;1.30;;;1.20;;
3975;SDS011;2002;48.812;9.180;2023-05-10T07:51:16;1.23;;;1.10;;
3975;SDS011;2002;48.812;9.180;2023-05-10T07:53:42;0.97;;;0.97;;
3975;SDS011;2002;48.812;9.180;2023-05-10T07:56:20;1.00;;;1.00;;
3975;SDS011;2002;48.812;9.180;2023-05-10T07:58:52;1.10;;;1.00;;
3975;SDS011;2002;48.812;9.180;2023-05-10T08:01:18;1.13;;;1.07;;
3975;SDS011;2002;48.812;9.180;2023-05-10T08:03:44;1.00;;;0.90;;
3975;SDS011;2002;48.812;9.180;2023-05-10T08:06:10;1.00;;;1.00;;
3975;SDS011;2002;48.812;9.180;2023-05-10T08:08:36;1.30;;;1.20;;
3975;SDS011;2002;48.812;9.180;2023-05-10T08:11:01;0.90;;;0.90;;
3975;SDS011;2002;48.812;9.180;2023-05-10T08:13:27;0.97;;;0.97;;
3975;SDS011;2002;48.812;9.180;2023-05-10T08:15:52;1.00;;;0.90;;
3975;SDS011;2002;48.812;9.180;2023-05-10T08:18:18;1.00;;;0.90;;
3975;SDS011;2002;48.812;9.180;2023-05-10T08:20:44;1.30;;;1.20;;
3975;SDS011;2002;48.812;9.180;2023-05-10T08:23:11;1.20;;;1.10;;
3975;SDS011;2002;48.812;9.180;2023-05-10T08:25:37;1.40;;;1.30;;
3975;SDS011;2002;48.812;9.180;2023-05-10T08:28:03;1.70;;;1.60;;
3975;SDS011;2002;48.812;9.180;2023-05-10T08:30:29;1.30;;;1.20;;
3975;SDS011;2002;48.812;9.180;2023-05-10T08:32:54;1.50;;;1.00;;
3975;SDS011;2002;48.812;9.180;2023-05-10T08:35:20;1.13;;;1.03;;
3975;SDS011;2002;48.812;9.180;2023-05-10T08:37:46;1.43;;;1.30;;
3975;SDS011;2002;48.812;9.180;2023-05-10T08:40:11;1.17;;;1.07;;
3975;SDS011;2002;48.812;9.180;2023-05-10T08:42:39;1.00;;;1.00;;
3975;SDS011;2002;48.812;9.180;2023-05-10T08:45:07;1.00;;;0.90;;
3975;SDS011;2002;48.812;9.180;2023-05-10T08:47:34;0.83;;;0.83;;
3975;SDS011;2002;48.812;9.180;2023-05-10T08:50:02;1.00;;;1.00;;
3975;SDS011;2002;48.812;9.180;2023-05-10T08:52:28;1.27;;;1.17;;
3975;SDS011;2002;48.812;9.180;2023-05-10T08:54:55;1.30;;;1.20;;
3975;SDS011;2002;48.812;9.180;2023-05-10T08:57:21;1.40;;;1.00;;
3975;SDS011;2002;48.812;9.180;2023-05-10T08:59:47;1.07;;;0.97;;
3975;SDS011;2002;48.812;9.180;2023-05-10T09:02:13;0.80;;;0.80;;
3975;SDS011;2002;48.812;9.180;2023-05-10T09:04:39;1.10;;;1.00;;
3975;SDS011;2002;48.812;9.180;2023-05-10T09:07:05;0.80;;;0.80;;
3975;SDS011;2002;48.812;9.180;2023-05-10T09:09:32;1.30;;;1.20;;
3975;SDS011;2002;48.812;9.180;2023-05-10T09:11:58;1.23;;;1.13;;
3975;SDS011;2002;48.812;9.180;2023-05-10T09:14:24;1.00;;;0.90;;
3975;SDS011;2002;48.812;9.180;2023-05-10T09:16:50;1.13;;;1.03;;
3975;SDS011;2002;48.812;9.180;2023-05-10T09:19:16;0.83;;;0.83;;
3975;SDS011;2002;48.812;9.180;2023-05-10T09:21:42;1.03;;;0.93;;
3975;SDS011;2002;48.812;9.180;2023-05-10T09:24:08;1.17;;;1.07;;
3975;SDS011;2002;48.812;9.180;2023-05-10T09:26:34;1.07;;;1.03;;
3975;SDS011;2002;48.812;9.180;2023-05-10T09:29:10;1.03;;;1.03;;
3975;SDS011;2002;48.812;9.180;2023-05-10T09:31:48;1.17;;;1.07;;
3975;SDS011;2002;48.812;9.180;2023-05-10T09:34:30;1.10;;;1.00;;
3975;SDS011;2002;48.812;9.180;2023-05-10T09:36:58;0.90;;;0.90;;
3975;SDS011;2002;48.812;9.180;2023-05-10T09:39:31;1.10;;;1.00;;
3975;SDS011;2002;48.812;9.180;2023-05-10T09:41:58;1.10;;;1.00;;
3975;SDS011;2002;48.812;9.180;2023-05-10T09:44:26;0.80;;;0.80;;
3975;SDS011;2002;48.812;9.180;2023-05-10T09:46:51;1.10;;;1.00;;
3975;SDS011;2002;48.812;9.180;2023-05-10T09:49:18;0.80;;;0.80;;
3975;SDS011;2002;48.812;9.180;2023-05-10T09:51:44;0.93;;;0.80;;
3975;SDS011;2002;48.812;9.180;2023-05-10T09:54:11;0.93;;;0.93;;
3975;SDS011;2002;48.812;9.180;2023-05-10T09:56:38;1.50;;;1.10;;
3975;SDS011;2002;48.812;9.180;2023-05-10T09:59:05;1.40;;;1.20;;
3975;SDS011;2002;48.812;9.180;2023-05-10T10:01:33;1.00;;;1.00;;
3975;SDS011;2002;48.812;9.180;2023-05-10T10:04:02;1.20;;;1.10;;
3975;SDS011;2002;48.812;9.180;2023-05-10T10:06:41;1.90;;;1.17;;
3975;SDS011;2002;48.812;9.180;2023-05-10T10:09:07;0.93;;;0.83;;
3975;SDS011;2002;48.812;9.180;2023-05-10T10:11:37;1.10;;;1.10;;
3975;SDS011;2002;48.812;9.180;2023-05-10T10:14:04;0.87;;;0.87;;
3975;SDS011;2002;48.812;9.180;2023-05-10T10:16:30;0.90;;;0.90;;
3975;SDS011;2002;48.812;9.180;2023-05-10T10:18:57;1.00;;;0.90;;
3975;SDS011;2002;48.812;9.180;2023-05-10T10:21:23;0.80;;;0.80;;
3975;SDS011;2002;48.812;9.180;2023-05-10T10:23:49;0.80;;;0.80;;
3975;SDS011;2002;48.812;9.180;2023-05-10T10:26:16;0.87;;;0.83;;
3975;SDS011;2002;48.812;9.180;2023-05-10T10:31:21;1.00;;;0.90;;
3975;SDS011;2002;48.812;9.180;2023-05-10T10:34:03;1.00;;;0.93;;
3975;SDS011;2002;48.812;9.180;2023-05-10T10:36:39;1.00;;;0.83;;
3975;SDS011;2002;48.812;9.180;2023-05-10T10:39:09;0.93;;;0.93;;
3975;SDS011;2002;48.812;9.180;2023-05-10T10:41:36;0.83;;;0.83;;
3975;SDS011;2002;48.812;9.180;2023-05-10T10:44:24;1.13;;;1.03;;
3975;SDS011;2002;48.812;9.180;2023-05-10T10:55:14;1.00;;;0.90;;
3975;SDS011;2002;48.812;9.180;2023-05-10T10:57:50;0.93;;;0.90;;
3975;SDS011;2002;48.812;9.180;2023-05-10T11:00:35;1.00;;;0.90;;
3975;SDS011;2002;48.812;9.180;2023-05-10T11:03:14;1.17;;;1.07;;
3975;SDS011;2002;48.812;9.180;2023-05-10T11:05:50;1.10;;;1.00;;
3975;SDS011;2002;48.812;9.180;2023-05-10T11:08:26;1.17;;;0.83;;
3975;SDS011;2002;48.812;9.180;2023-05-10T11:10:53;0.97;;;0.87;;
3975;SDS011;2002;48.812;9.180;2023-05-10T11:13:38;1.10;;;0.80;;
3975;SDS011;2002;48.812;9.180;2023-05-10T11:16:12;1.27;;;0.80;;
3975;SDS011;2002;48.812;9.180;2023-05-10T11:18:39;1.00;;;0.80;;
3975;SDS011;2002;48.812;9.180;2023-05-10T11:21:05;0.70;;;0.70;;
3975;SDS011;2002;48.812;9.180;2023-05-10T11:26:06;0.83;;;0.73;;
3975;SDS011;2002;48.812;9.180;2023-05-10T11:28:34;0.80;;;0.80;;
3975;SDS011;2002;48.812;9.180;2023-05-10T11:31:06;1.10;;;1.00;;
3975;SDS011;2002;48.812;9.180;2023-05-10T11:33:41;1.00;;;0.90;;
3975;SDS011;2002;48.812;9.180;2023-05-10T11:36:10;1.00;;;0.87;;
3975;SDS011;2002;48.812;9.180;2023-05-10T11:38:39;0.73;;;0.70;;
3975;SDS011;2002;48.812;9.180;2023-05-10T11:41:04;1.20;;;1.10;;
3975;SDS011;2002;48.812;9.180;2023-05-10T11:43:30;1.27;;;1.00;;
3975;SDS011;2002;48.812;9.180;2023-05-10T11:45:56;0.80;;;0.80;;
3975;SDS011;2002;48.812;9.180;2023-05-10T11:48:21;0.93;;;0.80;;
3975;SDS011;2002;48.812;9.180;2023-05-10T11:50:49;0.60;;;0.60;;
3975;SDS011;2002;48.812;9.180;2023-05-10T11:53:15;1.00;;;0.90;;
3975;SDS011;2002;48.812;9.180;2023-05-10T11:55:40;1.10;;;0.87;;
3975;SDS011;2002;48.812;9.180;2023-05-10T11:58:06;0.93;;;0.93;;
3975;SDS011;2002;48.812;9.180;2023-05-10T12:00:31;0.80;;;0.80;;
3975;SDS011;2002;48.812;9.180;2023-05-10T12:02:57;0.80;;;0.70;;
3975;SDS011;2002;48.812;9.180;2023-05-10T12:05:23;0.70;;;0.70;;
3975;SDS011;2002;48.812;9.180;2023-05-10T12:07:49;1.00;;;0.70;;
3975;SDS011;2002;48.812;9.180;2023-05-10T12:10:15;0.80;;;0.80;;
3975;SDS011;2002;48.812;9.180;2023-05-10T12:12:42;0.97;;;0.93;;
3975;SDS011;2002;48.812;9.180;2023-05-10T12:15:10;1.30;;;1.20;;
3975;SDS011;2002;48.812;9.180;2023-05-10T12:17:37;1.00;;;0.90;;
3975;SDS011;2002;48.812;9.180;2023-05-10T12:20:19;1.23;;;1.03;;
3975;SDS011;2002;48.812;9.180;2023-05-10T12:22:51;1.10;;;1.00;;
3975;SDS011;2002;48.812;9.180;2023-05-10T12:25:18;0.90;;;0.80;;
3975;SDS011;2002;48.812;9.180;2023-05-10T12:27:48;0.80;;;0.80;;
3975;SDS011;2002;48.812;9.180;2023-05-10T12:30:19;0.73;;;0.60;;
3975;SDS011;2002;48.812;9.180;2023-05-10T12:32:49;0.90;;;0.80;;
3975;SDS011;2002;48.812;9.180;2023-05-10T12:35:15;0.90;;;0.83;;
3975;SDS011;2002;48.812;9.180;2023-05-10T12:37:44;0.77;;;0.77;;
3975;SDS011;2002;48.812;9.180;2023-05-10T12:40:10;0.80;;;0.60;;
3975;SDS011;2002;48.812;9.180;2023-05-10T12:42:36;1.20;;;1.10;;
3975;SDS011;2002;48.812;9.180;2023-05-10T12:45:03;1.17;;;0.87;;
3975;SDS011;2002;48.812;9.180;2023-05-10T12:47:30;1.10;;;0.90;;
3975;SDS011;2002;48.812;9.180;2023-05-10T12:50:03;1.03;;;0.90;;
3975;SDS011;2002;48.812;9.180;2023-05-10T12:52:29;1.10;;;1.00;;
3975;SDS011;2002;48.812;9.180;2023-05-10T12:54:57;0.80;;;0.80;;
3975;SDS011;2002;48.812;9.180;2023-05-10T12:57:23;0.90;;;0.80;;
3975;SDS011;2002;48.812;9.180;2023-05-10T12:59:49;0.90;;;0.80;;
3975;SDS011;2002;48.812;9.180;2023-05-10T13:02:15;1.33;;;0.90;;
3975;SDS011;2002;48.812;9.180;2023-05-10T13:04:43;1.10;;;1.00;;
3975;SDS011;2002;48.812;9.180;2023-05-10T13:07:09;1.03;;;0.93;;
3975;SDS011;2002;48.812;9.180;2023-05-10T13:09:35;1.00;;;0.90;;
3975;SDS011;2002;48.812;9.180;2023-05-10T13:12:00;0.70;;;0.60;;
3975;SDS011;2002;48.812;9.180;2023-05-10T13:14:26;0.83;;;0.83;;
3975;SDS011;2002;48.812;9.180;2023-05-10T13:16:52;0.93;;;0.83;;
3975;SDS011;2002;48.812;9.180;2023-05-10T13:19:18;0.80;;;0.70;;
3975;SDS011;2002;48.812;9.180;2023-05-10T13:21:44;0.93;;;0.70;;
3975;SDS011;2002;48.812;9.180;2023-05-10T13:24:10;0.70;;;0.70;;
3975;SDS011;2002;48.812;9.180;2023-05-10T13:26:38;0.80;;;0.80;;
3975;SDS011;2002;48.812;9.180;2023-05-10T13:29:05;0.90;;;0.90;;
3975;SDS011;2002;48.812;9.180;2023-05-10T13:31:31;0.80;;;0.70;;
3975;SDS011;2002;48.812;9.180;2023-05-10T13:33:56;1.10;;;1.00;;
3975;SDS011;2002;48.812;9.180;2023-05-10T13:36:22;1.13;;;0.90;;
3975;SDS011;2002;48.812;9.180;2023-05-10T13:38:48;0.80;;;0.73;;
3975;SDS011;2002;48.812;9.180;2023-05-10T13:41:13;0.97;;;0.80;;
3975;SDS011;2002;48.812;9.180;2023-05-10T13:43:39;1.20;;;0.90;;
3975;SDS011;2002;48.812;9.180;2023-05-10T13:46:05;1.17;;;0.83;;
3975;SDS011;2002;48.812;9.180;2023-05-10T13:48:30;0.70;;;0.70;;
3975;SDS011;2002;48.812;9.180;2023-05-10T13:50:56;0.70;;;0.70;;
3975;SDS011;2002;48.812;9.180;2023-05-10T13:53:22;1.00;;;0.80;;
3975;SDS011;2002;48.812;9.180;2023-05-10T13:55:47;1.13;;;1.03;;
3975;SDS011;2002;48.812;9.180;2023-05-10T13:58:13;0.97;;;0.90;;
3975;SDS011;2002;48.812;9.180;2023-05-10T14:00:39;0.83;;;0.77;;
3975;SDS011;2002;48.812;9.180;2023-05-10T14:03:05;0.70;;;0.70;;
3975;SDS011;2002;48.812;9.180;2023-05-10T14:05:31;0.60;;;0.57;;
3975;SDS011;2002;48.812;9.180;2023-05-10T14:07:57;0.70;;;0.60;;
3975;SDS011;2002;48.812;9.180;2023-05-10T14:10:23;0.70;;;0.70;;
3975;SDS011;2002;48.812;9.180;2023-05-10T14:12:49;0.70;;;0.70;;
3975;SDS011;2002;48.812;9.180;2023-05-10T14:15:15;0.67;;;0.67;;
3975;SDS011;2002;48.812;9.180;2023-05-10T14:17:41;0.90;;;0.90;;
3975;SDS011;2002;48.812;9.180;2023-05-10T14:20:07;0.90;;;0.70;;
3975;SDS011;2002;48.812;9.180;2023-05-10T14:22:33;0.77;;;0.70;;
3975;SDS011;2002;48.812;9.180;2023-05-10T14:24:59;0.67;;;0.60;;
3975;SDS011;2002;48.812;9.180;2023-05-10T14:27:25;0.67;;;0.67;;
3975;SDS011;2002;48.812;9.180;2023-05-10T14:29:51;1.10;;;1.00;;
3975;SDS011;2002;48.812;9.180;2023-05-10T14:32:18;0.63;;;0.50;;
3975;SDS011;2002;48.812;9.180;2023-05-10T14:34:43;0.93;;;0.83;;
3975;SDS011;2002;48.812;9.180;2023-05-10T14:37:10;0.83;;;0.73;;
3975;SDS011;2002;48.812;9.180;2023-05-10T14:39:36;0.90;;;0.67;;
3975;SDS011;2002;48.812;9.180;2023-05-10T14:42:01;0.80;;;0.70;;
3975;SDS011;2002;48.812;9.180;2023-05-10T14:44:27;0.80;;;0.70;;
3975;SDS011;2002;48.812;9.180;2023-05-10T14:46:53;0.77;;;0.70;;
3975;SDS011;2002;48.812;9.180;2023-05-10T14:49:19;0.90;;;0.90;;
3975;SDS011;2002;48.812;9.180;2023-05-10T14:51:47;0.70;;;0.67;;
3975;SDS011;2002;48.812;9.180;2023-05-10T14:54:13;1.40;;;1.00;;
3975;SDS011;2002;48.812;9.180;2023-05-10T14:56:38;1.30;;;0.80;;
3975;SDS011;2002;48.812;9.180;2023-05-10T14:59:06;2.70;;;0.90;;
3975;SDS011;2002;48.812;9.180;2023-05-10T15:01:32;0.90;;;0.80;;
3975;SDS011;2002;48.812;9.180;2023-05-10T15:03:58;1.00;;;0.90;;
3975;SDS011;2002;48.812;9.180;2023-05-10T15:06:25;0.93;;;0.77;;
3975;SDS011;2002;48.812;9.180;2023-05-10T15:08:56;0.87;;;0.87;;
3975;SDS011;2002;48.812;9.180;2023-05-10T15:11:22;0.80;;;0.80;;
3975;SDS011;2002;48.812;9.180;2023-05-10T15:13:47;0.90;;;0.73;;
3975;SDS011;2002;48.812;9.180;2023-05-10T15:16:13;0.93;;;0.87;;
3975;SDS011;2002;48.812;9.180;2023-05-10T15:18:38;0.80;;;0.80;;
3975;SDS011;2002;48.812;9.180;2023-05-10T15:21:04;0.80;;;0.80;;
3975;SDS011;2002;48.812;9.180;2023-05-10T15:23:29;1.00;;;0.90;;
3975;SDS011;2002;48.812;9.180;2023-05-10T15:25:55;0.90;;;0.80;;
3975;SDS011;2002;48.812;9.180;2023-05-10T15:28:21;1.17;;;1.07;;
3975;SDS011;2002;48.812;9.180;2023-05-10T15:30:47;1.50;;;0.90;;
3975;SDS011;2002;48.812;9.180;2023-05-10T15:33:13;1.40;;;1.30;;
3975;SDS011;2002;48.812;9.180;2023-05-10T15:35:38;0.80;;;0.70;;
3975;SDS011;2002;48.812;9.180;2023-05-10T15:38:04;1.00;;;0.90;;
3975;SDS011;2002;48.812;9.180;2023-05-10T15:40:30;0.90;;;0.90;;
3975;SDS011;2002;48.812;9.180;2023-05-10T15:42:56;0.83;;;0.83;;
3975;SDS011;2002;48.812;9.180;2023-05-10T15:45:21;1.23;;;1.13;;